Time;durP1;ratioP1;P1;durP2;ratioP2;P2;SDS_P1;SDS_P2;PMS_P1;PMS_P2;Temp;Humidity;BMP_temperature;BMP_pressure;BME280_temperature;BME280_humidity;BME280_pressure;Samples;Min_cycle;Max_cycle;Signal;HPM_P1;HPM_P2
2024/02/20 05:05:24;;;;;;;0.40;0.40;;;7.60;99.90;;;;;;6129506;23;20277;-66
2024/02/20 05:07:50;;;;;;;0.30;0.30;;;7.60;99.90;;;;;;4954198;29;20682;-65
2024/02/20 05:10:16;;;;;;;0.30;0.30;;;7.60;99.90;;;;;;4959563;29;20189;-64
2024/02/20 05:12:46;;;;;;;0.40;0.40;;;7.60;99.90;;;;;;4959777;29;20184;-65
2024/02/20 05:15:11;;;;;;;0.30;0.30;;;7.60;99.90;;;;;;4958813;28;20728;-66
2024/02/20 05:17:37;;;;;;;0.30;0.30;;;7.60;99.90;;;;;;4976929;28;20184;-63
2024/02/20 05:20:03;;;;;;;0.33;0.33;;;7.60;99.90;;;;;;4948631;28;20211;-64
2024/02/20 05:22:29;;;;;;;0.30;0.30;;;7.60;99.90;;;;;;4957163;28;20177;-64
2024/02/20 05:24:54;;;;;;;0.30;0.30;;;7.70;99.90;;;;;;4957925;28;20215;-64
2024/02/20 05:27:21;;;;;;;0.30;0.30;;;7.70;99.90;;;;;;4956967;28;20667;-64
2024/02/20 05:29:47;;;;;;;0.38;0.38;;;7.70;99.90;;;;;;4963940;28;20187;-63
2024/02/20 05:32:12;;;;;;;0.30;0.30;;;7.70;99.90;;;;;;4959678;28;20172;-66
2024/02/20 05:34:38;;;;;;;0.40;0.40;;;7.70;99.90;;;;;;4963989;28;20714;-66
2024/02/20 05:37:03;;;;;;;0.30;0.30;;;7.70;99.90;;;;;;4956356;28;20295;-64
2024/02/20 05:39:29;;;;;;;0.30;0.30;;;7.70;99.90;;;;;;4955827;29;20196;-65
2024/02/20 05:41:55;;;;;;;0.30;0.30;;;7.70;99.90;;;;;;4957542;29;20184;-64
2024/02/20 05:44:21;;;;;;;0.30;0.30;;;7.80;99.90;;;;;;4956979;28;20181;-66
2024/02/20 05:46:46;;;;;;;0.30;0.30;;;7.80;99.90;;;;;;4956872;28;20288;-64
2024/02/20 05:49:12;;;;;;;0.30;0.30;;;7.80;99.90;;;;;;4958109;28;20177;-65
2024/02/20 05:51:38;;;;;;;0.47;0.47;;;7.80;99.90;;;;;;4976632;28;20172;-65
2024/02/20 05:54:05;;;;;;;0.30;0.30;;;7.80;99.90;;;;;;4976679;28;20562;-66
2024/02/20 05:56:32;;;;;;;0.32;0.32;;;7.80;99.90;;;;;;4973261;28;20196;-66
2024/02/20 05:58:57;;;;;;;0.30;0.30;;;7.80;99.90;;;;;;4957191;29;20177;-66
2024/02/20 06:01:23;;;;;;;0.43;0.43;;;7.80;99.90;;;;;;4956821;28;20287;-65
2024/02/20 06:03:49;;;;;;;0.30;0.30;;;7.80;99.90;;;;;;4956988;29;20408;-66
2024/02/20 06:06:14;;;;;;;0.30;0.30;;;7.80;99.90;;;;;;4955988;28;20249;-65
2024/02/20 06:08:42;;;;;;;0.40;0.40;;;7.80;99.90;;;;;;4939933;29;20199;-65
2024/02/20 06:11:14;;;;;;;0.30;0.30;;;7.80;99.90;;;;;;4957062;29;20165;-66
2024/02/20 06:13:41;;;;;;;0.30;0.30;;;7.80;99.90;;;;;;4957069;29;20196;-67
2024/02/20 06:16:06;;;;;;;0.30;0.30;;;7.80;99.90;;;;;;4956331;28;20219;-64
2024/02/20 06:18:32;;;;;;;13.40;2.00;;;7.80;99.90;;;;;;4957009;29;20180;-65
2024/02/20 06:20:57;;;;;;;0.30;0.30;;;7.80;99.90;;;;;;4957416;29;20177;-64
2024/02/20 06:23:23;;;;;;;0.40;0.40;;;7.80;99.90;;;;;;4957038;29;20221;-64
2024/02/20 06:25:49;;;;;;;0.30;0.30;;;7.80;99.90;;;;;;4956327;28;20213;-69
2024/02/20 06:28:16;;;;;;;0.30;0.30;;;7.80;99.90;;;;;;4956914;29;20180;-66
2024/02/20 06:30:42;;;;;;;0.40;0.40;;;7.80;99.90;;;;;;4956709;29;20207;-67
2024/02/20 06:33:08;;;;;;;0.30;0.30;;;7.80;99.90;;;;;;4956842;29;20627;-64
2024/02/20 06:35:34;;;;;;;0.30;0.30;;;7.80;99.90;;;;;;4956613;28;20197;-66
2024/02/20 06:37:59;;;;;;;0.30;0.30;;;7.80;99.90;;;;;;4956669;29;20531;-70
2024/02/20 06:40:25;;;;;;;0.40;0.40;;;7.80;99.90;;;;;;4956746;29;20183;-64
2024/02/20 06:42:51;;;;;;;0.30;0.30;;;7.80;99.90;;;;;;4939509;29;20184;-66
2024/02/20 06:45:16;;;;;;;0.30;0.30;;;7.80;99.90;;;;;;4938798;28;20200;-65
2024/02/20 06:47:43;;;;;;;0.30;0.30;;;7.80;99.90;;;;;;4939443;29;20222;-66
2024/02/20 06:50:12;;;;;;;0.30;0.30;;;7.80;99.90;;;;;;4956695;29;20666;-65
2024/02/20 06:52:40;;;;;;;0.40;0.40;;;7.90;99.90;;;;;;4956345;29;20173;-65
2024/02/20 06:55:07;;;;;;;0.30;0.30;;;7.90;99.90;;;;;;4956218;29;20200;-65
2024/02/20 06:57:35;;;;;;;0.30;0.30;;;7.90;99.90;;;;;;4955897;28;20200;-64
2024/02/20 07:00:02;;;;;;;0.30;0.30;;;8.00;99.90;;;;;;4956429;29;20177;-63
2024/02/20 07:02:28;;;;;;;0.35;0.35;;;8.00;99.90;;;;;;4955963;29;20664;-63
2024/02/20 07:04:54;;;;;;;0.30;0.30;;;8.00;99.90;;;;;;4955808;29;20268;-65
2024/02/20 07:07:21;;;;;;;0.30;0.30;;;8.00;99.90;;;;;;4955416;28;20627;-63
2024/02/20 07:09:46;;;;;;;0.30;0.30;;;8.00;99.90;;;;;;4956164;29;20455;-62
2024/02/20 07:12:12;;;;;;;0.50;0.50;;;8.10;99.90;;;;;;4955848;29;20580;-63
2024/02/20 07:14:38;;;;;;;0.30;0.30;;;8.20;99.90;;;;;;4955863;29;20408;-64
2024/02/20 07:17:04;;;;;;;0.30;0.30;;;8.20;99.90;;;;;;4956012;28;20996;-65
2024/02/20 07:19:30;;;;;;;0.30;0.30;;;8.20;99.90;;;;;;4955808;29;20444;-64
2024/02/20 07:21:56;;;;;;;0.87;0.87;;;8.20;99.90;;;;;;4956120;29;20177;-64
2024/02/20 07:24:22;;;;;;;0.30;0.30;;;8.20;99.90;;;;;;4955815;29;20408;-63
2024/02/20 07:26:48;;;;;;;0.30;0.30;;;8.30;99.90;;;;;;4954918;28;20725;-64
2024/02/20 07:29:18;;;;;;;0.30;0.30;;;8.30;99.90;;;;;;4955663;29;20215;-63
2024/02/20 07:31:45;;;;;;;0.40;0.40;;;8.30;99.90;;;;;;4955469;29;20252;-64
2024/02/20 07:34:10;;;;;;;0.40;0.40;;;8.40;99.90;;;;;;4955641;29;20176;-64
2024/02/20 07:36:36;;;;;;;0.30;0.30;;;8.40;99.90;;;;;;4955153;28;20244;-63
2024/02/20 07:39:02;;;;;;;0.30;0.30;;;8.50;99.90;;;;;;4955998;29;20181;-64
2024/02/20 07:41:28;;;;;;;0.40;0.40;;;8.50;99.90;;;;;;4955561;29;20658;-63
2024/02/20 07:43:53;;;;;;;0.30;0.30;;;8.60;99.90;;;;;;4955549;29;20386;-62
2024/02/20 07:46:19;;;;;;;0.30;0.30;;;8.60;99.90;;;;;;4955201;28;20344;-63
2024/02/20 07:48:46;;;;;;;0.30;0.30;;;8.60;99.90;;;;;;4955379;29;20637;-63
2024/02/20 07:51:11;;;;;;;0.30;0.30;;;8.70;99.90;;;;;;4955438;29;20587;-63
2024/02/20 07:53:37;;;;;;;0.30;0.30;;;8.80;99.90;;;;;;4955358;29;20199;-64
2024/02/20 07:56:07;;;;;;;0.40;0.40;;;9.10;99.90;;;;;;4954926;28;20668;-64
2024/02/20 07:58:37;;;;;;;0.30;0.30;;;9.30;99.90;;;;;;4955506;29;20174;-65
2024/02/20 08:01:13;;;;;;;0.30;0.30;;;9.40;99.90;;;;;;4955857;29;20195;-65
2024/02/20 08:03:39;;;;;;;0.30;0.30;;;9.40;99.90;;;;;;4955404;29;20517;-66
2024/02/20 08:06:05;;;;;;;0.30;0.30;;;9.50;99.90;;;;;;4954154;29;20275;-64
2024/02/20 08:08:31;;;;;;;0.30;0.30;;;9.50;99.90;;;;;;4954912;29;20198;-64
2024/02/20 08:10:56;;;;;;;0.30;0.30;;;9.50;99.90;;;;;;4954976;29;20180;-64
2024/02/20 08:13:23;;;;;;;0.30;0.30;;;9.60;99.90;;;;;;4955260;29;20468;-66
2024/02/20 08:15:48;;;;;;;0.30;0.30;;;9.80;99.90;;;;;;4954753;29;20305;-65
2024/02/20 08:18:14;;;;;;;0.30;0.30;;;9.90;99.90;;;;;;4955275;29;20981;-65
2024/02/20 08:20:39;;;;;;;0.57;0.53;;;10.00;99.90;;;;;;4955134;29;20179;-62
2024/02/20 08:23:05;;;;;;;0.30;0.20;;;10.20;99.90;;;;;;4954823;29;20234;-64
2024/02/20 08:25:30;;;;;;;0.30;0.30;;;10.60;99.90;;;;;;4936974;29;20219;-64
2024/02/20 08:27:56;;;;;;;0.30;0.20;;;10.70;99.90;;;;;;4954723;29;20176;-64
2024/02/20 08:30:23;;;;;;;0.30;0.30;;;10.90;99.90;;;;;;4954828;29;20177;-63
2024/02/20 08:32:49;;;;;;;0.30;0.30;;;10.80;99.90;;;;;;4954647;29;20179;-64
2024/02/20 08:35:15;;;;;;;0.30;0.30;;;10.90;99.90;;;;;;4937107;29;20410;-65
2024/02/20 08:37:41;;;;;;;0.37;0.37;;;10.90;99.90;;;;;;4955905;28;20775;-66
2024/02/20 08:40:07;;;;;;;0.40;0.40;;;10.90;99.90;;;;;;4958701;29;20470;-65
2024/02/20 08:42:33;;;;;;;0.30;0.30;;;11.00;99.90;;;;;;4958702;29;20423;-62
2024/02/20 08:44:58;;;;;;;0.30;0.30;;;11.20;99.90;;;;;;4958336;29;20928;-63
2024/02/20 08:47:24;;;;;;;0.30;0.20;;;11.30;99.90;;;;;;4958749;29;20197;-65
2024/02/20 08:49:52;;;;;;;0.33;0.33;;;11.30;99.90;;;;;;4958643;29;20234;-64
2024/02/20 08:52:18;;;;;;;0.40;0.40;;;11.30;99.90;;;;;;4958617;29;20710;-65
2024/02/20 08:54:44;;;;;;;0.30;0.30;;;11.30;99.90;;;;;;4958135;29;20420;-64
2024/02/20 08:57:10;;;;;;;0.30;0.30;;;11.30;99.90;;;;;;4958411;29;20200;-66
2024/02/20 08:59:35;;;;;;;0.30;0.30;;;11.20;99.90;;;;;;4958613;29;20419;-64
2024/02/20 09:02:02;;;;;;;0.30;0.30;;;11.20;99.90;;;;;;4958524;29;20698;-65
2024/02/20 09:04:28;;;;;;;0.30;0.30;;;11.20;99.90;;;;;;4958190;29;20243;-61
2024/02/20 09:06:56;;;;;;;0.30;0.30;;;11.10;99.90;;;;;;4958250;29;20797;-66
2024/02/20 09:09:22;;;;;;;0.30;0.30;;;10.90;99.90;;;;;;4958428;29;20184;-65
2024/02/20 09:11:51;;;;;;;0.30;0.30;;;10.70;99.90;;;;;;4958310;29;20398;-63
2024/02/20 09:14:18;;;;;;;0.30;0.30;;;10.60;99.90;;;;;;4958391;29;20426;-65
2024/02/20 09:16:45;;;;;;;0.30;0.30;;;10.70;99.90;;;;;;4960238;28;20982;-63
2024/02/20 09:19:10;;;;;;;0.30;0.30;;;10.70;99.90;;;;;;4970117;28;20381;-64
2024/02/20 09:21:37;;;;;;;0.30;0.30;;;10.80;99.90;;;;;;4977229;28;20433;-66
2024/02/20 09:24:03;;;;;;;0.30;0.20;;;10.90;99.90;;;;;;4977563;28;20691;-65
2024/02/20 09:26:30;;;;;;;0.30;0.30;;;10.90;99.90;;;;;;4976969;28;20465;-64
2024/02/20 09:28:56;;;;;;;0.30;0.30;;;10.90;99.90;;;;;;4977487;28;20411;-69
2024/02/20 09:31:21;;;;;;;0.30;0.30;;;10.80;99.90;;;;;;4977188;28;20402;-68
2024/02/20 09:33:49;;;;;;;0.30;0.30;;;10.70;99.90;;;;;;4977044;28;20179;-67
2024/02/20 09:36:14;;;;;;;0.30;0.30;;;10.70;99.90;;;;;;4976434;28;20218;-64
2024/02/20 09:38:40;;;;;;;1.43;1.33;;;10.60;99.90;;;;;;4976629;28;20416;-65
2024/02/20 09:41:07;;;;;;;0.30;0.30;;;10.70;99.90;;;;;;4976881;28;20179;-65
2024/02/20 09:43:33;;;;;;;0.30;0.30;;;10.90;99.90;;;;;;4977008;28;20237;-65
2024/02/20 09:46:13;;;;;;;0.30;0.30;;;11.00;99.90;;;;;;4976635;28;20552;-64
2024/02/20 09:48:41;;;;;;;0.50;0.50;;;11.20;99.90;;;;;;4977158;28;20408;-65
2024/02/20 09:51:07;;;;;;;0.30;0.30;;;11.40;99.90;;;;;;4976329;28;20422;-66
2024/02/20 09:53:36;;;;;;;0.30;0.30;;;11.80;99.90;;;;;;4977221;28;20473;-63
2024/02/20 09:56:03;;;;;;;0.30;0.30;;;12.10;99.90;;;;;;4976512;28;20427;-64
2024/02/20 09:58:28;;;;;;;0.30;0.30;;;12.50;99.90;;;;;;4976834;28;20394;-65
2024/02/20 10:00:57;;;;;;;0.30;0.20;;;13.30;99.90;;;;;;4976637;28;20415;-64
2024/02/20 10:03:25;;;;;;;0.30;0.20;;;14.30;99.90;;;;;;4976502;28;20195;-67
2024/02/20 10:05:51;;;;;;;0.30;0.20;;;15.60;99.90;;;;;;4976282;28;20478;-65
2024/02/20 10:08:16;;;;;;;0.47;0.43;;;16.60;99.90;;;;;;4959240;28;20831;-66
2024/02/20 10:10:46;;;;;;;0.30;0.20;;;17.30;98.90;;;;;;4976192;28;20173;-67
2024/02/20 10:13:12;;;;;;;0.30;0.20;;;17.70;96.70;;;;;;4976433;28;20180;-64
2024/02/20 10:15:37;;;;;;;0.67;0.67;;;17.80;96.20;;;;;;4975851;28;20469;-63
2024/02/20 10:18:04;;;;;;;0.30;0.20;;;18.10;96.10;;;;;;4976056;28;20929;-66
2024/02/20 10:20:30;;;;;;;0.30;0.20;;;18.40;94.70;;;;;;4976156;28;20642;-63
2024/02/20 10:23:03;;;;;;;0.30;0.20;;;18.50;95.10;;;;;;4976101;28;20467;-65
2024/02/20 10:25:29;;;;;;;0.30;0.30;;;18.80;93.60;;;;;;4975677;28;20482;-65
2024/02/20 10:27:54;;;;;;;0.30;0.30;;;18.90;92.60;;;;;;4976343;28;20397;-64
2024/02/20 10:30:20;;;;;;;0.30;0.30;;;18.90;92.60;;;;;;4976302;28;20171;-65
2024/02/20 10:32:45;;;;;;;0.30;0.27;;;19.20;92.00;;;;;;4971015;28;20245;-67
2024/02/20 10:35:11;;;;;;;0.30;0.20;;;19.50;91.40;;;;;;4975822;28;20649;-64
2024/02/20 10:37:38;;;;;;;0.30;0.20;;;19.80;90.60;;;;;;4975824;28;20646;-66
2024/02/20 10:40:04;;;;;;;0.30;0.23;;;19.70;90.20;;;;;;4975997;28;20202;-65
2024/02/20 10:42:34;;;;;;;0.30;0.20;;;19.50;90.60;;;;;;4975771;28;20390;-63
2024/02/20 10:45:03;;;;;;;0.30;0.30;;;19.00;90.90;;;;;;4975616;28;20194;-65
2024/02/20 10:47:29;;;;;;;0.30;0.30;;;18.80;90.80;;;;;;4975800;28;20428;-63
2024/02/20 10:49:58;;;;;;;1.23;1.00;;;18.40;91.20;;;;;;4975666;28;20394;-65
2024/02/20 10:52:26;;;;;;;0.30;0.20;;;18.00;91.20;;;;;;4975758;28;20415;-63
2024/02/20 10:54:54;;;;;;;0.30;0.20;;;17.90;91.50;;;;;;4975350;28;20383;-63
2024/02/20 10:57:20;;;;;;;0.30;0.30;;;17.30;91.70;;;;;;4975348;28;20463;-64
2024/02/20 10:59:49;;;;;;;0.30;0.20;;;16.60;92.80;;;;;;4975518;28;20452;-63
2024/02/20 11:02:15;;;;;;;0.30;0.20;;;16.10;93.50;;;;;;4974604;28;20618;-64
2024/02/20 11:04:41;;;;;;;0.30;0.30;;;15.90;94.70;;;;;;4975250;28;20427;-64
2024/02/20 11:07:08;;;;;;;0.30;0.20;;;15.90;95.10;;;;;;4975240;28;20447;-63
2024/02/20 11:09:33;;;;;;;0.30;0.30;;;15.90;95.10;;;;;;4975461;28;20490;-66
2024/02/20 11:12:07;;;;;;;0.30;0.20;;;15.70;94.20;;;;;;4965643;28;20490;-65
2024/02/20 11:14:32;;;;;;;0.30;0.27;;;15.70;94.20;;;;;;4971829;28;20254;-60
2024/02/20 11:16:58;;;;;;;0.30;0.30;;;15.80;94.20;;;;;;4975457;28;20445;-60
2024/02/20 11:19:28;;;;;;;0.30;0.30;;;15.60;93.40;;;;;;4958156;28;20170;-59
2024/02/20 11:22:05;;;;;;;0.30;0.30;;;15.60;94.60;;;;;;4975641;28;20272;-60
2024/02/20 11:24:33;;;;;;;0.30;0.30;;;15.80;94.30;;;;;;4957601;28;20421;-59
2024/02/20 11:27:03;;;;;;;0.30;0.30;;;16.00;94.30;;;;;;4975611;28;20439;-60
2024/02/20 11:29:28;;;;;;;0.30;0.30;;;16.00;94.00;;;;;;4976196;28;20412;-60
2024/02/20 11:31:54;;;;;;;0.30;0.30;;;15.80;94.00;;;;;;4975718;28;20402;-59
2024/02/20 11:34:25;;;;;;;0.40;0.40;;;15.60;94.20;;;;;;4975977;28;20179;-59
2024/02/20 11:36:51;;;;;;;0.30;0.30;;;15.40;93.90;;;;;;4975315;28;20204;-58
2024/02/20 11:39:17;;;;;;;0.30;0.30;;;15.40;94.80;;;;;;4975805;28;20406;-60
2024/02/20 11:41:45;;;;;;;0.47;0.40;;;15.30;95.10;;;;;;4976292;28;20181;-63
2024/02/20 11:44:11;;;;;;;0.30;0.20;;;15.10;95.50;;;;;;4975260;28;20330;-63
2024/02/20 11:46:38;;;;;;;0.30;0.30;;;15.00;94.60;;;;;;4974601;28;20479;-63
2024/02/20 11:49:04;;;;;;;0.30;0.30;;;14.70;95.00;;;;;;4975046;28;20177;-64
2024/02/20 11:51:30;;;;;;;0.30;0.30;;;14.40;95.60;;;;;;4974637;28;20391;-64
2024/02/20 11:54:05;;;;;;;0.30;0.30;;;14.20;96.10;;;;;;4956754;28;20186;-62
2024/02/20 11:56:34;;;;;;;0.33;0.33;;;13.80;96.50;;;;;;4955038;28;20250;-65
2024/02/20 11:59:01;;;;;;;0.30;0.30;;;13.20;97.20;;;;;;4955177;29;20413;-63
2024/02/20 12:01:28;;;;;;;0.30;0.30;;;12.80;97.40;;;;;;4955270;29;20906;-65
2024/02/20 12:03:54;;;;;;;0.30;0.30;;;12.60;98.30;;;;;;4955412;29;20410;-62
2024/02/20 12:06:27;;;;;;;0.30;0.30;;;12.50;98.70;;;;;;4954579;28;20446;-67
2024/02/20 12:08:55;;;;;;;0.30;0.20;;;12.50;98.00;;;;;;4955429;29;20402;-68
2024/02/20 12:11:29;;;;;;;0.30;0.30;;;12.40;97.10;;;;;;4954886;29;20974;-66
2024/02/20 12:14:01;;;;;;;0.30;0.30;;;12.30;96.00;;;;;;4954803;28;20378;-69
2024/02/20 12:16:36;;;;;;;0.30;0.30;;;12.20;96.60;;;;;;4954710;28;20481;-65
2024/02/20 12:19:02;;;;;;;0.30;0.30;;;12.00;97.20;;;;;;4955061;29;20393;-68
2024/02/20 12:21:29;;;;;;;0.33;0.33;;;11.90;97.90;;;;;;4955288;29;20404;-64
2024/02/20 12:23:59;;;;;;;0.30;0.30;;;11.80;98.20;;;;;;4955140;29;20188;-66
2024/02/20 12:26:26;;;;;;;0.30;0.30;;;11.80;98.30;;;;;;4954397;28;20459;-63
2024/02/20 12:28:52;;;;;;;0.30;0.20;;;11.80;98.10;;;;;;4955154;29;20415;-66
2024/02/20 12:31:24;;;;;;;0.30;0.30;;;11.70;98.40;;;;;;4954699;29;20443;-67
2024/02/20 12:33:50;;;;;;;0.33;0.33;;;11.70;98.10;;;;;;4954838;29;20432;-63
2024/02/20 12:36:16;;;;;;;0.30;0.30;;;11.70;98.20;;;;;;4954532;28;20433;-64
2024/02/20 12:38:43;;;;;;;0.30;0.20;;;11.80;98.50;;;;;;4954866;29;20426;-64
2024/02/20 12:41:09;;;;;;;0.30;0.30;;;11.80;98.50;;;;;;4955005;29;20267;-65
2024/02/20 12:43:34;;;;;;;0.40;0.40;;;11.80;98.40;;;;;;4954713;29;20511;-68
2024/02/20 12:46:00;;;;;;;0.50;0.50;;;11.80;98.00;;;;;;4954202;28;20212;-67
2024/02/20 12:48:25;;;;;;;0.30;0.30;;;11.80;97.90;;;;;;4954653;29;20180;-68
2024/02/20 12:50:51;;;;;;;0.30;0.30;;;11.70;98.50;;;;;;4954873;29;20260;-68
2024/02/20 12:53:17;;;;;;;0.30;0.30;;;11.70;98.60;;;;;;4954704;29;20169;-68
2024/02/20 12:55:42;;;;;;;0.30;0.30;;;11.60;98.50;;;;;;4954284;28;20196;-65
2024/02/20 12:58:09;;;;;;;0.30;0.30;;;11.60;98.50;;;;;;4954460;29;20642;-66
2024/02/20 13:00:35;;;;;;;0.30;0.30;;;11.70;98.70;;;;;;4954594;29;20184;-67
2024/02/20 13:03:01;;;;;;;0.30;0.30;;;11.80;98.40;;;;;;4954651;29;20461;-67
2024/02/20 13:05:32;;;;;;;0.30;0.30;;;11.90;98.40;;;;;;4953716;28;20495;-68
2024/02/20 13:07:59;;;;;;;0.30;0.30;;;11.90;98.30;;;;;;4954273;29;20519;-67
2024/02/20 13:10:29;;;;;;;0.70;0.70;;;12.00;98.30;;;;;;4954488;29;20421;-67
2024/02/20 13:12:55;;;;;;;0.30;0.30;;;12.10;97.90;;;;;;4954601;29;20434;-67
2024/02/20 13:15:22;;;;;;;0.30;0.30;;;12.00;97.70;;;;;;4952602;28;20443;-67
2024/02/20 13:17:50;;;;;;;0.30;0.20;;;12.00;97.80;;;;;;4952639;29;20447;-67
2024/02/20 13:20:15;;;;;;;0.30;0.30;;;11.90;97.80;;;;;;4952895;29;20840;-67
2024/02/20 13:22:43;;;;;;;0.30;0.30;;;11.80;97.90;;;;;;4953633;29;20415;-67
2024/02/20 13:25:09;;;;;;;0.30;0.23;;;11.90;98.10;;;;;;4955921;28;20299;-67
2024/02/20 13:27:35;;;;;;;0.40;0.40;;;11.90;97.80;;;;;;4958151;29;20506;-67
2024/02/20 13:30:02;;;;;;;0.30;0.30;;;11.90;97.30;;;;;;4958046;29;20438;-66
2024/02/20 13:32:28;;;;;;;0.30;0.30;;;12.00;97.10;;;;;;4958038;29;20186;-66
2024/02/20 13:34:53;;;;;;;0.40;0.40;;;12.00;97.30;;;;;;4957630;29;20407;-67
2024/02/20 13:37:19;;;;;;;0.70;0.70;;;12.10;97.40;;;;;;4957637;28;20263;-67
2024/02/20 13:39:45;;;;;;;0.30;0.30;;;12.10;97.70;;;;;;4957680;29;20235;-67
2024/02/20 13:42:11;;;;;;;0.30;0.30;;;12.10;97.20;;;;;;4957948;29;20199;-67
2024/02/20 13:44:36;;;;;;;0.30;0.20;;;12.10;97.10;;;;;;4957304;29;20195;-69
2024/02/20 13:47:02;;;;;;;0.30;0.30;;;12.10;97.60;;;;;;4924195;29;20922;-65
2024/02/20 13:49:28;;;;;;;0.50;0.50;;;12.20;97.80;;;;;;4957518;29;20207;-64
2024/02/20 13:51:54;;;;;;;0.30;0.30;;;12.30;97.90;;;;;;4957002;29;20176;-66
2024/02/20 13:54:20;;;;;;;0.30;0.30;;;12.40;97.60;;;;;;4957409;29;20419;-68
2024/02/20 13:56:46;;;;;;;0.40;0.40;;;12.50;96.90;;;;;;4956983;29;20188;-65
2024/02/20 13:59:12;;;;;;;0.30;0.20;;;12.60;97.60;;;;;;4957652;29;20423;-66
2024/02/20 14:01:39;;;;;;;0.30;0.30;;;12.70;97.70;;;;;;4956786;29;20953;-65
2024/02/20 14:04:05;;;;;;;0.30;0.30;;;12.70;97.40;;;;;;4940116;29;20404;-64
2024/02/20 14:06:34;;;;;;;0.30;0.20;;;12.70;97.00;;;;;;4956630;29;20467;-64
2024/02/20 14:09:05;;;;;;;0.30;0.20;;;12.70;96.80;;;;;;4957222;29;20172;-64
2024/02/20 14:11:40;;;;;;;0.40;0.30;;;12.70;97.20;;;;;;4957112;29;20499;-68
2024/02/20 14:14:07;;;;;;;0.73;0.73;;;12.80;97.30;;;;;;4923766;29;20398;-63
2024/02/20 14:16:33;;;;;;;0.30;0.20;;;12.80;96.90;;;;;;4956426;29;20449;-67
2024/02/20 14:18:58;;;;;;;0.40;0.37;;;12.70;96.70;;;;;;4939933;29;20440;-68
2024/02/20 14:21:25;;;;;;;0.30;0.30;;;12.70;97.00;;;;;;4957147;29;20829;-67
2024/02/20 14:23:51;;;;;;;0.30;0.30;;;12.60;96.90;;;;;;4957010;29;20172;-68
2024/02/20 14:26:17;;;;;;;0.30;0.30;;;12.50;96.70;;;;;;4956586;29;20456;-66
2024/02/20 14:28:43;;;;;;;0.30;0.30;;;12.40;97.50;;;;;;4956793;29;20841;-68
2024/02/20 14:31:10;;;;;;;0.30;0.30;;;12.40;97.10;;;;;;4956576;29;20507;-66
2024/02/20 14:33:37;;;;;;;0.33;0.33;;;12.40;97.20;;;;;;4957020;29;20756;-68
2024/02/20 14:36:05;;;;;;;0.30;0.30;;;12.40;97.00;;;;;;4956323;28;20440;-66
2024/02/20 14:38:31;;;;;;;0.30;0.20;;;12.30;97.10;;;;;;4956275;29;20756;-67
2024/02/20 14:40:57;;;;;;;0.30;0.30;;;12.30;97.50;;;;;;4954755;29;20443;-66
2024/02/20 14:43:23;;;;;;;0.30;0.30;;;12.30;96.80;;;;;;4954739;29;20707;-66
2024/02/20 14:45:48;;;;;;;0.30;0.30;;;12.20;96.60;;;;;;4954624;29;20216;-67
2024/02/20 14:48:14;;;;;;;0.30;0.20;;;12.20;96.80;;;;;;4954986;29;20256;-65
2024/02/20 14:50:40;;;;;;;0.30;0.30;;;12.10;97.20;;;;;;4955035;29;20247;-68
2024/02/20 14:53:07;;;;;;;0.30;0.30;;;12.20;97.20;;;;;;4954949;29;20918;-67
2024/02/20 14:55:33;;;;;;;0.30;0.30;;;12.10;96.80;;;;;;4956006;29;20207;-66
2024/02/20 14:58:03;;;;;;;0.40;0.40;;;12.10;96.70;;;;;;4939785;29;20531;-68
2024/02/20 15:00:30;;;;;;;0.30;0.20;;;12.10;96.90;;;;;;4956556;29;20452;-67
2024/02/20 15:02:56;;;;;;;0.47;0.47;;;12.20;96.90;;;;;;4956716;29;20555;-65
2024/02/20 15:05:21;;;;;;;0.30;0.30;;;12.20;96.20;;;;;;4956009;29;20921;-66
2024/02/20 15:07:47;;;;;;;0.30;0.30;;;12.10;95.90;;;;;;4956465;29;20435;-67
2024/02/20 15:10:13;;;;;;;0.33;0.33;;;12.10;96.10;;;;;;4956623;29;20621;-67
2024/02/20 15:12:39;;;;;;;0.30;0.20;;;12.00;95.80;;;;;;4963952;29;20169;-68
2024/02/20 15:15:07;;;;;;;0.30;0.30;;;11.90;95.80;;;;;;4966851;29;20386;-67
2024/02/20 15:17:32;;;;;;;0.30;0.20;;;11.90;95.80;;;;;;4966112;29;20428;-68
2024/02/20 15:19:59;;;;;;;0.43;0.43;;;11.90;96.30;;;;;;4949675;29;20446;-66
2024/02/20 15:22:24;;;;;;;0.37;0.37;;;11.80;96.60;;;;;;4968832;29;20420;-67
2024/02/20 15:24:50;;;;;;;0.30;0.30;;;11.80;96.70;;;;;;4967945;29;20547;-64
2024/02/20 15:27:20;;;;;;;0.30;0.20;;;11.70;96.80;;;;;;4968822;29;20199;-68
2024/02/20 15:29:46;;;;;;;0.30;0.30;;;11.70;96.70;;;;;;4959255;29;20270;-67
2024/02/20 15:32:14;;;;;;;0.30;0.30;;;11.70;96.80;;;;;;4956883;29;20423;-68
2024/02/20 15:34:40;;;;;;;0.30;0.30;;;11.60;96.90;;;;;;4956101;29;20502;-66
2024/02/20 15:37:07;;;;;;;0.30;0.30;;;11.60;97.00;;;;;;4957524;29;20433;-67
2024/02/20 15:39:33;;;;;;;0.30;0.30;;;11.50;97.20;;;;;;4960448;29;20418;-69
2024/02/20 15:41:58;;;;;;;0.30;0.30;;;11.50;97.60;;;;;;4962156;29;20398;-67
2024/02/20 15:44:24;;;;;;;0.30;0.30;;;11.40;97.30;;;;;;4964405;29;20403;-67
2024/02/20 15:46:50;;;;;;;0.30;0.30;;;11.40;96.80;;;;;;4964716;28;20228;-66
2024/02/20 15:49:16;;;;;;;0.30;0.30;;;11.30;96.80;;;;;;4964646;29;20432;-65
2024/02/20 15:51:42;;;;;;;0.30;0.30;;;11.20;96.70;;;;;;4940736;29;20290;-67
2024/02/20 15:54:09;;;;;;;0.30;0.30;;;11.20;96.80;;;;;;4938927;29;20192;-69
2024/02/20 15:56:35;;;;;;;0.30;0.30;;;11.10;97.10;;;;;;4955428;29;20836;-67
2024/02/20 15:59:02;;;;;;;0.30;0.30;;;11.00;97.30;;;;;;4955838;29;20438;-67
2024/02/20 16:01:28;;;;;;;0.30;0.20;;;11.00;97.40;;;;;;4955950;29;20469;-67
2024/02/20 16:03:54;;;;;;;0.30;0.30;;;10.90;97.40;;;;;;4955491;29;20810;-68
2024/02/20 16:06:19;;;;;;;0.30;0.30;;;10.90;97.30;;;;;;4955381;29;20443;-66
2024/02/20 16:08:45;;;;;;;0.30;0.30;;;10.90;97.30;;;;;;4955432;29;20204;-69
2024/02/20 16:11:11;;;;;;;0.30;0.30;;;10.80;97.40;;;;;;4955339;29;20181;-68
2024/02/20 16:13:36;;;;;;;0.30;0.30;;;10.80;97.60;;;;;;4955426;29;20278;-68
2024/02/20 16:16:02;;;;;;;0.30;0.30;;;10.70;97.90;;;;;;4954819;29;20634;-66
2024/02/20 16:18:28;;;;;;;0.30;0.30;;;10.60;98.10;;;;;;4937932;29;20449;-66
2024/02/20 16:20:54;;;;;;;0.30;0.30;;;10.60;98.10;;;;;;4937979;29;20189;-66
2024/02/20 16:23:19;;;;;;;0.30;0.30;;;10.60;98.30;;;;;;4954925;29;20214;-67
2024/02/20 16:25:45;;;;;;;0.40;0.40;;;10.60;98.20;;;;;;4954678;29;20210;-65
2024/02/20 16:28:10;;;;;;;0.50;0.50;;;10.50;98.10;;;;;;4955269;29;20188;-67
2024/02/20 16:30:36;;;;;;;0.40;0.40;;;10.50;98.10;;;;;;4955180;29;20311;-66
2024/02/20 16:33:03;;;;;;;0.30;0.30;;;10.40;98.40;;;;;;4954859;29;20187;-67
2024/02/20 16:35:32;;;;;;;0.30;0.30;;;10.40;98.60;;;;;;4954609;29;20422;-68
2024/02/20 16:37:58;;;;;;;0.30;0.30;;;10.30;98.70;;;;;;4937693;29;20410;-68
2024/02/20 16:40:24;;;;;;;0.30;0.30;;;10.30;98.80;;;;;;4954947;29;20739;-66
2024/02/20 16:42:49;;;;;;;0.30;0.30;;;10.30;98.70;;;;;;4955094;29;20595;-69
2024/02/20 16:45:15;;;;;;;0.30;0.30;;;10.10;99.20;;;;;;4954508;29;20239;-68
2024/02/20 16:47:41;;;;;;;0.40;0.40;;;10.10;99.30;;;;;;4954847;29;20178;-67
2024/02/20 16:50:07;;;;;;;0.30;0.30;;;10.10;99.60;;;;;;4954598;29;20862;-68
2024/02/20 16:52:33;;;;;;;0.30;0.30;;;9.90;99.90;;;;;;4954915;29;20413;-66
2024/02/20 16:54:59;;;;;;;0.30;0.30;;;9.90;99.90;;;;;;4954626;29;20417;-66
2024/02/20 16:57:25;;;;;;;0.30;0.30;;;9.90;99.90;;;;;;4954839;29;20584;-68
2024/02/20 16:59:51;;;;;;;3.50;1.17;;;9.80;99.90;;;;;;4956105;28;20209;-68
2024/02/20 17:02:17;;;;;;;0.30;0.30;;;9.80;99.90;;;;;;4958674;29;20444;-67
2024/02/20 17:04:44;;;;;;;0.40;0.40;;;9.80;99.90;;;;;;4940445;29;20185;-69
2024/02/20 17:07:10;;;;;;;0.30;0.20;;;9.80;99.90;;;;;;4958455;29;20207;-68
2024/02/20 17:09:35;;;;;;;0.30;0.30;;;9.70;99.90;;;;;;4958461;29;20406;-68
2024/02/20 17:12:01;;;;;;;0.40;0.40;;;9.70;99.90;;;;;;4958776;29;20518;-67
2024/02/20 17:14:26;;;;;;;0.30;0.30;;;9.70;99.90;;;;;;4958618;29;20169;-67
2024/02/20 17:16:53;;;;;;;0.30;0.30;;;9.60;99.90;;;;;;4957872;29;20205;-68
2024/02/20 17:19:19;;;;;;;0.30;0.30;;;9.60;99.90;;;;;;4958230;29;20573;-68
2024/02/20 17:21:45;;;;;;;0.60;0.60;;;9.60;99.90;;;;;;4958552;29;20178;-65
2024/02/20 17:24:11;;;;;;;0.30;0.30;;;9.60;99.90;;;;;;4941088;29;20719;-67
2024/02/20 17:26:40;;;;;;;0.30;0.30;;;9.60;99.90;;;;;;4961818;28;20287;-63
2024/02/20 17:29:05;;;;;;;0.30;0.30;;;9.60;99.90;;;;;;4958219;29;20205;-66
2024/02/20 17:31:31;;;;;;;0.40;0.40;;;9.50;99.90;;;;;;4957679;29;20205;-69
2024/02/20 17:34:00;;;;;;;0.40;0.40;;;9.60;99.90;;;;;;4957796;29;20251;-67
2024/02/20 17:36:26;;;;;;;0.30;0.30;;;9.50;99.90;;;;;;4957580;29;20533;-68
2024/02/20 17:38:52;;;;;;;0.37;0.37;;;9.50;99.90;;;;;;4957853;29;20227;-69
2024/02/20 17:41:22;;;;;;;0.30;0.20;;;9.50;99.90;;;;;;4957948;29;20425;-65
2024/02/20 17:43:49;;;;;;;0.30;0.30;;;9.40;99.90;;;;;;4957946;29;20185;-70
2024/02/20 17:46:18;;;;;;;0.30;0.30;;;9.40;99.90;;;;;;4957364;29;20213;-67
2024/02/20 17:48:45;;;;;;;0.30;0.30;;;9.40;99.90;;;;;;4958008;29;20176;-66
2024/02/20 17:51:11;;;;;;;2.25;0.60;;;9.40;99.90;;;;;;4958004;29;20180;-65